• Join FlightAware (Why Join?)
  • Login
  • US Flag 
08:00AM EST


 

Airport Tracker/Info


-or-


 

Live Flight TrackerFlight Track Log ✈ N813MK ✈ 19-Apr-2013 ✈ KMKC - KSEE

Flight Track Log - Related Links

Times and Time Zones

All times are in EDT time to prevent confusion due to time zone crossing. See the N813MK flight status page for this flight to view local times or setup timezone preferences in your user account.

Time Position Orientation Groundspeed Altitude Reporting Facility
EDT Latitude Longitude Course Direction KTS MPH feet Rate Location/Type
09:47AM 39.1500 -94.5833 319° Northwest 182 209 1,800  Level Kansas City TRACON
09:48AM 39.1694 -94.6053 319° Northwest 176 203 3,100 2,460 Climbing Kansas City Center
09:49AM 39.1681 -94.6789 269° West 188 216 6,300 3,180 Climbing Kansas City Center
09:50AM 39.1678 -94.7553 270° West 224 258 9,700 3,120 Climbing Kansas City Center
09:51AM 39.1678 -94.8467 270° West 265 305 12,700 3,240 Climbing Kansas City Center
09:52AM 39.1653 -94.9731 269° West 315 362 16,500 3,120 Climbing Kansas City Center
09:53AM 39.1639 -95.0903 269° West 338 389 19,200 3,000 Climbing Kansas City Center
09:54AM 39.1625 -95.2422 269° West 365 420 22,700 3,000 Climbing Kansas City Center
09:55AM 39.1594 -95.3797 268° West 385 443 25,500 2,580 Climbing Kansas City Center
09:56AM 39.1561 -95.5142 268° West 404 465 28,000 3,120 Climbing Kansas City Center
09:57AM 39.1536 -95.6736 269° West 397 457 32,100 2,760 Climbing Kansas City Center
09:58AM 39.1506 -95.8047 268° West 384 442 33,800 1,800 Climbing Kansas City Center
09:59AM 39.1469 -95.9669 268° West 401 461 35,800 1,560 Climbing Kansas City Center
10:00AM 39.1269 -96.1011 259° West 398 458 37,100 1,380 Climbing Kansas City Center
10:01AM 39.1108 -96.2350 261° West 393 452 38,700 1,320 Climbing Kansas City Center
10:02AM 39.0917 -96.3869 261° West 384 442 39,900 1,020 Climbing Kansas City Center
10:03AM 39.0728 -96.5139 259° West 378 435 40,900 720 Climbing Kansas City Center
10:04AM 39.0547 -96.6664 261° West 383 441 41,500 480 Climbing Kansas City Center
10:05AM 39.0342 -96.7997 259° West 393 452 42,000 660 Climbing Kansas City Center
10:06AM 39.0197 -96.9581 263° West 398 458 42,900 480 Climbing Kansas City Center
10:07AM 38.9992 -97.0917 259° West 398 458 43,000  Climbing Kansas City Center
10:08AM 38.9775 -97.2464 260° West 408 470 43,000  Level Kansas City Center
10:09AM 38.9572 -97.3961 260° West 408 470 43,000  Level Kansas City Center
10:11AM 38.9350 -97.5514 260° West 413 475 43,000  Level Kansas City Center
10:12AM 38.9094 -97.6906 257° West 419 482 43,000  Level Kansas City Center
10:13AM 38.8686 -97.8475 252° West 420 483 43,000  Level Kansas City Center
10:14AM 38.8314 -97.9967 252° West 421 484 43,000  Level Kansas City Center
10:15AM 38.7972 -98.1336 252° West 419 482 43,000  Level Kansas City Center
10:16AM 38.7597 -98.2800 252° West 416 479 43,000  Level Kansas City Center
10:17AM 38.7225 -98.4256 252° West 412 474 43,000  Level Kansas City Center
10:18AM 38.6856 -98.5714 252° West 413 475 43,000  Level Kansas City Center
10:19AM 38.6478 -98.7169 252° West 413 475 43,000  Level Kansas City Center
10:20AM 38.6119 -98.8564 252° West 416 479 43,000  Level Kansas City Center
10:21AM 38.5769 -98.9897 251° West 414 476 43,000  Level Kansas City Center
10:22AM 38.5356 -99.1453 251° West 414 476 43,000  Level Kansas City Center
10:23AM 38.4981 -99.2778 250° West 415 478 43,000  Level Kansas City Center
10:24AM 38.4581 -99.4331 252° West 414 476 43,000  Level Kansas City Center
10:25AM 38.4231 -99.5661 251° West 413 475 43,000  Level Kansas City Center
10:26AM 38.3814 -99.7203 251° West 413 475 43,000  Level Kansas City Center
10:27AM 38.3458 -99.8511 251° West 411 473 43,000  Level Kansas City Center
10:28AM 38.3044 -100.0028 251° West 408 470 43,000  Level Kansas City Center
10:29AM 38.2686 -100.1367 251° West 413 475 43,000  Level Kansas City Center
10:30AM 38.2325 -100.2689 251° West 415 478 43,000  Level Kansas City Center
10:31AM 38.1894 -100.4225 250° West 414 476 43,000  Level Kansas City Center
10:32AM 38.1528 -100.5556 251° West 417 480 43,000  Level Kansas City Center
10:33AM 38.1100 -100.7106 251° West 418 481 43,000  Level Kansas City Center
10:34AM 38.0719 -100.8442 250° West 421 484 43,000  Level Kansas City Center
10:35AM 38.0283 -101.0003 251° West 423 487 43,000  Level Kansas City Center
10:35AM 38.0164 -101.0453 251° West 424 488 43,000  Level Denver Center
10:37AM 37.9781 -101.1786 250° West 423 487 43,000 240 Level Denver Center
10:38AM 37.9347 -101.3336 251° West 420 483 43,600 480 Climbing Denver Center
10:39AM 37.8967 -101.4656 250° West 419 482 44,000 480 Climbing Denver Center
10:40AM 37.8589 -101.5956 250° West 414 476 44,600 480 Climbing Denver Center
10:41AM 37.8144 -101.7475 250° West 412 474 45,000 180 Climbing Denver Center
10:42AM 37.7775 -101.8778 250° West 413 475 45,000  Level Denver Center
10:43AM 37.7333 -102.0289 250° West 411 473 45,000  Level Denver Center
10:44AM 37.6939 -102.1581 249° West 412 474 45,000  Level Denver Center
10:45AM 37.6500 -102.3100 250° West 412 474 45,000  Level Denver Center
10:46AM 37.6111 -102.4386 249° West 411 473 45,000  Level Denver Center
10:47AM 37.5678 -102.5894 250° West 408 470 45,000  Level Denver Center
10:48AM 37.5289 -102.7169 249° West 406 467 45,000  Level Denver Center
10:49AM 37.4819 -102.8669 249° West 410 472 45,000  Level Denver Center
10:50AM 37.4450 -102.9942 250° West 406 467 45,000  Level Denver Center
10:51AM 37.4064 -103.1203 249° West 404 465 45,000  Level Denver Center
10:52AM 37.3742 -103.2281 249° West 407 468 45,000  Level Albuquerque Center
10:53AM 37.3350 -103.3550 249° West 407 468 45,000  Level Albuquerque Center
10:54AM 37.2881 -103.5047 249° West 411 473 45,000  Level Albuquerque Center
10:55AM 37.2478 -103.6325 248° West 410 472 45,000  Level Albuquerque Center
10:55AM 37.2347 -103.6739 248° West 408 470 45,000  Level Denver Center
10:56AM 37.1886 -103.8225 249° West 407 468 45,000  Level Denver Center
10:57AM 37.1492 -103.9489 249° West 404 465 45,000  Level Denver Center
10:58AM 37.1231 -104.0325 249° West 402 463 45,000  Level Albuquerque Center
10:59AM 37.0769 -104.1792 249° West 403 464 45,000  Level Albuquerque Center
11:00AM 37.0367 -104.3036 248° West 402 463 45,000  Level Albuquerque Center
11:01AM 36.9900 -104.4511 248° West 405 466 45,000  Level Albuquerque Center
11:01AM 36.9764 -104.4961 249° West 409 471 45,000  Level Denver Center
11:02AM 36.9361 -104.6225 248° West 410 472 45,000  Level Denver Center
11:03AM 36.8883 -104.7708 248° West 410 472 45,000  Level Denver Center
11:04AM 36.8608 -104.8544 248° West 412 474 45,000  Level Albuquerque Center
11:05AM 36.8192 -104.9853 248° West 419 482 45,000  Level Albuquerque Center
11:06AM 36.7703 -105.1353 248° West 418 481 45,000  Level Albuquerque Center
11:07AM 36.7286 -105.2644 248° West 419 482 45,000  Level Albuquerque Center
11:08AM 36.6797 -105.4158 248° West 421 484 45,000  Level Albuquerque Center
11:09AM 36.6631 -105.4583 244° Southwest 419 482 45,000  Level Denver Center
11:10AM 36.6206 -105.5869 248° West 419 482 45,000  Level Denver Center
11:10AM 36.5861 -105.6906 248° West 419 482 45,000  Level Albuquerque Center
11:11AM 36.5422 -105.8225 248° West 417 480 45,000  Level Albuquerque Center
11:12AM 36.4944 -105.9725 248° West 421 484 45,000  Level Albuquerque Center
11:13AM 36.4517 -106.0997 247° West 418 481 45,000  Level Albuquerque Center
11:14AM 36.4028 -106.2494 248° West 418 481 45,000  Level Albuquerque Center
11:15AM 36.3581 -106.3761 246° West 419 482 45,000  Level Albuquerque Center
11:16AM 36.3150 -106.5047 247° West 421 484 45,000  Level Albuquerque Center
11:17AM 36.2633 -106.6547 247° West 422 486 45,000  Level Albuquerque Center
11:19AM 36.2192 -106.7836 247° West 425 489 45,000  Level Albuquerque Center
11:20AM 36.1719 -106.9206 247° West 426 490 45,000  Level Albuquerque Center
11:21AM 36.1244 -107.0556 246° West 429 494 45,000  Level Albuquerque Center
11:22AM 36.0700 -107.2153 247° West 427 491 45,000  Level Albuquerque Center
11:23AM 36.0244 -107.3456 247° West 429 494 45,000  Level Albuquerque Center
11:24AM 35.9717 -107.4956 247° West 428 493 45,000  Level Albuquerque Center
11:25AM 35.9261 -107.6244 246° West 428 493 45,000  Level Albuquerque Center
11:26AM 35.8725 -107.7736 246° West 427 491 45,000  Level Albuquerque Center
11:27AM 35.8272 -107.9006 246° West 423 487 45,000  Level Albuquerque Center
11:28AM 35.7758 -108.0469 247° West 418 481 45,000  Level Albuquerque Center
11:29AM 35.7308 -108.1719 246° West 417 480 45,000  Level Albuquerque Center
11:30AM 35.6861 -108.2958 246° West 415 478 45,000  Level Albuquerque Center
11:31AM 35.6339 -108.4408 246° West 413 475 45,000  Level Albuquerque Center
11:32AM 35.5894 -108.5647 246° West 412 474 45,000  Level Albuquerque Center
11:33AM 35.5364 -108.7072 245° Southwest 410 472 45,000  Level Albuquerque Center
11:34AM 35.4928 -108.8289 246° West 407 468 45,000  Level Albuquerque Center
11:35AM 35.4544 -108.9767 252° West 405 466 45,000  Level Albuquerque Center
11:37AM 35.4105 -109.1648 256° West  Level FlightAware Approximate
11:37AM 35.4011 -109.2519 256° West 400 460 45,000  Level Albuquerque Center
11:38AM 35.3750 -109.3814 256° West 404 465 45,000  Level Albuquerque Center
11:39AM 35.3489 -109.5061 256° West 399 459 45,000  Level Albuquerque Center
11:40AM 35.3175 -109.6547 256° West 400 460 45,000  Level Albuquerque Center
11:41AM 35.2917 -109.7831 256° West 403 464 45,000  Level Albuquerque Center
11:42AM 35.2617 -109.9353 256° West 410 472 45,000  Level Albuquerque Center
11:43AM 35.2347 -110.0633 256° West 407 468 45,000 -60 Level Albuquerque Center
11:44AM 35.2028 -110.2114 255° West 404 465 44,900 -300 Descending Albuquerque Center
11:45AM 35.1744 -110.3408 255° West 409 471 44,400 -540 Descending Albuquerque Center
11:46AM 35.1422 -110.4928 256° West 413 475 43,800 -480 Descending Albuquerque Center
11:47AM 35.1128 -110.6231 255° West 415 478 43,500 -300 Descending Albuquerque Center
11:49AM 35.0778 -110.7761 254° West 420 483 43,200 -240 Descending Albuquerque Center
11:50AM 35.0503 -110.9061 256° West 421 484 43,100 -120 Descending Albuquerque Center
11:51AM 35.0206 -111.0408 255° West 417 480 43,000  Descending Albuquerque Center
11:52AM 34.9944 -111.1792 257° West 418 481 43,100  Climbing Albuquerque Center
11:53AM 34.9658 -111.3119 255° West 411 473 43,100 -60 Level Albuquerque Center
11:54AM 34.9300 -111.4678 254° West 403 464 43,000 -60 Descending Albuquerque Center
11:55AM 34.9014 -111.5983 255° West 402 463 43,000  Level Albuquerque Center
11:56AM 34.8725 -111.7275 255° West 399 459 43,000  Level Albuquerque Center
11:57AM 34.8392 -111.8758 255° West 401 461 43,000  Level Albuquerque Center
11:58AM 34.8094 -112.0050 254° West 399 459 43,000  Level Albuquerque Center
11:59AM 34.7803 -112.1353 255° West 399 459 43,000  Level Albuquerque Center
12:00PM 34.7508 -112.2647 255° West 398 458 43,000  Level Albuquerque Center
12:01PM 34.7214 -112.3936 255° West 397 457 43,000  Level Albuquerque Center
12:02PM 34.6911 -112.5217 254° West 396 456 43,000 -120 Level Albuquerque Center
12:03PM 34.6506 -112.6750 252° West 397 457 42,800 -600 Descending Albuquerque Center
12:04PM 34.6156 -112.8050 252° West 401 461 41,800 -900 Descending Albuquerque Center
12:05PM 34.5811 -112.9375 253° West 408 470 41,000 -840 Descending Albuquerque Center
12:06PM 34.5458 -113.0672 252° West 408 470 40,100 -1,080 Descending Albuquerque Center
12:07PM 34.5108 -113.1986 252° West 408 470 38,800 -1,260 Descending Albuquerque Center
12:08PM 34.4742 -113.3336 252° West 416 479 37,500 -1,260 Descending Albuquerque Center
12:09PM 34.4358 -113.4742 252° West 432 497 36,200 -1,440 Descending Albuquerque Center
12:10PM 34.3881 -113.6489 252° West 446 513 34,600 -1,440 Descending Albuquerque Center
12:11PM 34.3444 -113.8064 252° West 459 528 33,300 -1,260 Descending Albuquerque Center
12:12PM 34.3031 -113.9558 252° West 466 536 32,100 -660 Descending Albuquerque Center
12:13PM 34.2625 -114.1017 251° West 462 532 32,000 -600 Descending Albuquerque Center
12:15PM 34.2200 -114.2507 251° West  Level FlightAware Approximate
12:16PM 34.1508 -114.5075 239° Southwest 460 529 29,800  Level Los Angeles Center
12:17PM 34.1189 -114.6236 252° West 456 525 28,800 -900 Descending Los Angeles Center
12:18PM 34.0381 -114.8125 243° Southwest 453 521 28,000 -420 Descending Los Angeles Center
12:19PM 33.9750 -114.9406 239° Southwest 448 516 28,000  Level Los Angeles Center
12:20PM 33.9111 -115.0664 239° Southwest 443 510 28,000 -60 Level Los Angeles Center
12:21PM 33.8486 -115.1953 240° Southwest 445 512 27,900 -540 Descending Los Angeles Center
12:22PM 33.8902 -115.0865 239° Southwest  Level FlightAware Approximate
12:22PM 33.7836 -115.3225 238° Southwest 446 513 27,000  Level Los Angeles Center
12:23PM 33.7036 -115.4822 239° Southwest 463 533 25,800 -1,020 Descending Los Angeles Center
12:24PM 33.6378 -115.6133 239° Southwest 460 529 24,900 -840 Descending Los Angeles Center
12:26PM 33.5714 -115.7439 239° Southwest 461 531 24,100 -480 Descending Los Angeles Center
12:27PM 33.5072 -115.8711 239° Southwest 450 518 24,000 -300 Descending Los Angeles Center
12:28PM 33.4464 -115.9933 239° Southwest 433 498 23,500 -780 Descending Los Angeles Center
12:29PM 33.3506 -116.1133 226° Southwest 423 487 22,500 -1,800 Descending Los Angeles Center
12:30PM 33.2597 -116.1919 216° Southwest 408 470 19,900 -3,300 Descending Los Angeles Center
12:31PM 33.1739 -116.2681 217° Southwest 390 449 15,800 -3,540 Descending Los Angeles Center
12:32PM 33.0939 -116.3378 216° Southwest 369 425 12,600 -1,860 Descending Los Angeles Center
12:33PM 33.0228 -116.4031 218° Southwest 306 352 12,000 -300 Descending Los Angeles Center
12:34PM 32.9539 -116.4647 217° Southwest 308 354 12,000 -660 Level Los Angeles Center
12:35PM 32.8764 -116.5322 216° Southwest 320 368 10,700 -1,500 Descending Los Angeles Center
12:36PM 32.8347 -116.6219 241° Southwest 319 367 8,900 -1,200 Descending Los Angeles Center
12:37PM 32.8122 -116.7081 253° West 284 327 8,300 -1,320 Descending Los Angeles Center
12:38PM 32.8075 -116.7789 265° West 225 259 6,200 -2,100 Descending Los Angeles Center
12:39PM 32.8058 -116.8606 269° West 208 239 4,000 -1,920 Descending Los Angeles Center
12:40PM 32.8156 -116.9061 284° West 153 176 2,300 -1,800 Descending Los Angeles Center
12:40PM 32.8167 -116.9333 273° West 142 163 1,500 -960 Descending Southern California TRACON
12:41PM 32.8333 -116.9667 301° West 141 162 1,100 -480 Descending Southern California TRACON
12:43PM 32.8262 -116.9724 283° West  Level Estimated
12:50PM 32.8262 -116.9724 283° West  Level Estimated
12:51PM 32.8262 -116.9724 283° West  Level Estimated
12:52PM 32.8262 -116.9724 283° West  Level Estimated